createdAt,value
2022-08-21T00:02:18.914Z,20.82
2022-08-21T00:06:21.281Z,20.69
2022-08-21T00:10:24.057Z,20.73
2022-08-21T00:14:26.240Z,20.62
2022-08-21T00:18:34.565Z,20.53
2022-08-21T00:22:38.078Z,20.43
2022-08-21T00:26:40.462Z,20.40
2022-08-21T00:30:43.291Z,20.31
2022-08-21T00:34:45.593Z,20.27
2022-08-21T00:38:47.824Z,20.24
2022-08-21T00:42:53.738Z,20.14
2022-08-21T00:46:56.058Z,20.05
2022-08-21T00:51:09.837Z,20.01
2022-08-21T00:55:13.937Z,19.84
2022-08-21T00:59:19.109Z,19.81
2022-08-21T01:03:24.073Z,19.62
2022-08-21T01:07:27.783Z,19.51
2022-08-21T01:11:30.047Z,19.45
2022-08-21T01:15:37.243Z,19.31
2022-08-21T01:19:39.827Z,19.19
2022-08-21T01:23:46.184Z,19.21
2022-08-21T01:27:48.584Z,19.06
2022-08-21T01:31:51.452Z,19.07
2022-08-21T01:35:53.830Z,19.03
2022-08-21T01:39:56.153Z,18.91
2022-08-21T01:43:58.398Z,18.90
2022-08-21T01:48:00.773Z,18.86
2022-08-21T01:52:05.823Z,18.74
2022-08-21T01:56:16.422Z,18.70
2022-08-21T02:00:20.633Z,18.61
2022-08-21T02:04:23.698Z,18.52
2022-08-21T02:08:25.789Z,18.56
2022-08-21T02:12:27.979Z,18.47
2022-08-21T02:16:30.104Z,18.47
2022-08-21T02:20:41.843Z,18.53
2022-08-21T02:24:50.548Z,18.52
2022-08-21T02:28:57.722Z,18.48
2022-08-21T02:33:00.768Z,18.43
2022-08-21T02:37:02.968Z,18.39
2022-08-21T02:41:08.808Z,18.36
2022-08-21T02:45:12.059Z,18.37
2022-08-21T02:49:14.092Z,18.34
2022-08-21T02:53:18.463Z,18.35
2022-08-21T02:57:20.471Z,18.25
2022-08-21T03:01:23.027Z,18.21
2022-08-21T03:05:27.373Z,18.15
2022-08-21T03:09:29.668Z,18.19
2022-08-21T03:13:33.239Z,18.10
2022-08-21T03:17:35.581Z,18.05
2022-08-21T03:21:37.702Z,17.99
2022-08-21T03:25:41.108Z,17.94
2022-08-21T03:29:43.321Z,17.98
2022-08-21T03:33:45.917Z,17.92
2022-08-21T03:37:48.595Z,17.94
2022-08-21T03:41:50.996Z,17.82
2022-08-21T03:45:53.607Z,17.84
2022-08-21T03:49:55.871Z,17.84
2022-08-21T03:53:57.859Z,17.85
2022-08-21T03:58:00.119Z,17.89
2022-08-21T04:02:22.263Z,18.02
2022-08-21T04:06:26.203Z,18.10
2022-08-21T04:10:30.465Z,18.19
2022-08-21T04:14:32.817Z,18.29
2022-08-21T04:18:34.982Z,18.43
2022-08-21T04:22:37.301Z,18.48
2022-08-21T04:26:40.665Z,18.61
2022-08-21T04:30:44.870Z,18.69
2022-08-21T04:34:47.264Z,18.77
2022-08-21T04:38:49.927Z,18.81
2022-08-21T04:42:59.219Z,18.95
2022-08-21T04:47:01.846Z,19.03
2022-08-21T04:51:10.152Z,19.12
2022-08-21T04:55:12.678Z,19.17
2022-08-21T04:59:22.276Z,19.35
2022-08-21T05:03:25.961Z,19.44
2022-08-21T05:07:42.650Z,19.60
2022-08-21T05:11:46.018Z,19.71
2022-08-21T05:15:48.210Z,19.82
2022-08-21T05:19:50.624Z,19.78
2022-08-21T05:23:52.981Z,19.93
2022-08-21T05:27:55.325Z,20.21
2022-08-21T05:32:00.451Z,20.29
2022-08-21T05:36:03.097Z,20.37
2022-08-21T05:40:21.936Z,20.69
2022-08-21T05:44:25.242Z,20.98
2022-08-21T05:48:28.982Z,21.13
2022-08-21T05:52:31.445Z,21.28
2022-08-21T05:56:34.018Z,21.40
2022-08-21T06:00:36.364Z,21.53
2022-08-21T06:04:41.595Z,21.65
2022-08-21T06:08:44.417Z,21.67
2022-08-21T06:12:46.779Z,21.75
2022-08-21T06:16:49.133Z,21.81
2022-08-21T06:20:51.449Z,21.85
2022-08-21T06:24:53.764Z,21.94
2022-08-21T06:28:56.006Z,22.13
2022-08-21T06:32:58.783Z,22.12
2022-08-21T06:37:01.178Z,22.18
2022-08-21T06:41:04.343Z,22.41
2022-08-21T06:45:07.238Z,22.62
2022-08-21T06:49:09.502Z,22.74
2022-08-21T06:53:23.477Z,22.93
2022-08-21T06:57:27.022Z,23.10
2022-08-21T07:01:29.318Z,23.15
2022-08-21T07:05:31.840Z,23.23
2022-08-21T07:09:34.214Z,23.32
2022-08-21T07:13:36.875Z,23.26
2022-08-21T07:17:39.195Z,23.42
2022-08-21T07:21:41.465Z,23.66
2022-08-21T07:25:43.486Z,23.62
2022-08-21T07:29:46.123Z,23.91
2022-08-21T07:33:49.023Z,23.93
2022-08-21T07:37:51.515Z,24.32
2022-08-21T07:41:53.672Z,24.58
2022-08-21T07:45:56.131Z,24.10
2022-08-21T07:49:58.301Z,24.55
2022-08-21T07:54:01.633Z,24.64
2022-08-21T07:58:03.880Z,24.95
2022-08-21T08:02:06.235Z,24.98
2022-08-21T08:06:13.699Z,25.08
2022-08-21T08:10:17.034Z,25.09
2022-08-21T08:14:19.226Z,25.05
2022-08-21T08:18:29.071Z,25.11
2022-08-21T08:22:31.170Z,25.11
2022-08-21T08:26:33.402Z,25.43
2022-08-21T08:30:35.725Z,25.35
2022-08-21T08:34:39.729Z,25.67
2022-08-21T08:38:42.085Z,25.74
2022-08-21T08:42:48.686Z,25.95
2022-08-21T08:46:53.629Z,26.04
2022-08-21T08:51:02.298Z,26.03
2022-08-21T08:55:27.288Z,26.23
2022-08-21T08:59:59.001Z,26.23
2022-08-21T09:04:02.635Z,26.45
2022-08-21T09:08:18.122Z,26.54
2022-08-21T09:12:43.476Z,26.41
2022-08-21T09:16:57.075Z,26.50
2022-08-21T09:21:18.977Z,26.56
2022-08-21T09:25:27.247Z,27.01
2022-08-21T09:29:34.519Z,26.86
2022-08-21T09:33:37.193Z,26.81
2022-08-21T09:37:49.907Z,26.78
2022-08-21T09:42:02.314Z,26.72
2022-08-21T09:46:11.182Z,27.03
2022-08-21T09:50:18.665Z,27.24
2022-08-21T09:54:33.856Z,27.10
2022-08-21T09:58:39.429Z,26.98
2022-08-21T10:02:41.955Z,27.54
2022-08-21T10:06:44.301Z,27.51
2022-08-21T10:10:56.309Z,27.10
2022-08-21T10:15:14.472Z,27.29
2022-08-21T10:19:31.922Z,27.27
2022-08-21T10:23:52.703Z,26.88
2022-08-21T10:28:13.402Z,27.04
2022-08-21T10:32:47.198Z,26.65
2022-08-21T10:37:08.339Z,26.61
2022-08-21T10:41:46.630Z,26.64
2022-08-21T10:46:22.661Z,26.67
2022-08-21T10:50:48.177Z,26.27
2022-08-21T10:54:57.988Z,26.30
2022-08-21T10:59:23.865Z,26.21
2022-08-21T11:03:36.624Z,25.91
2022-08-21T11:07:49.018Z,25.75
2022-08-21T11:11:59.344Z,25.86
2022-08-21T11:16:18.977Z,26.02
2022-08-21T11:20:34.782Z,26.05
2022-08-21T11:24:48.375Z,26.46
2022-08-21T11:29:02.431Z,26.46
2022-08-21T11:33:22.794Z,26.13
2022-08-21T11:37:25.166Z,26.36
2022-08-21T11:41:27.609Z,26.67
2022-08-21T11:45:50.802Z,26.52
2022-08-21T11:49:59.300Z,26.15
2022-08-21T11:54:23.114Z,26.11
2022-08-21T11:58:32.426Z,26.07
2022-08-21T12:02:38.637Z,26.25
2022-08-21T12:06:42.559Z,26.45
2022-08-21T12:11:00.602Z,26.99
2022-08-21T12:15:17.506Z,27.65
2022-08-21T12:19:25.617Z,27.90
2022-08-21T12:23:45.082Z,27.78
2022-08-21T12:27:52.030Z,27.25
2022-08-21T12:32:15.915Z,27.08
2022-08-21T12:36:23.499Z,26.87
2022-08-21T12:40:32.730Z,26.54
2022-08-21T12:44:41.208Z,26.64
2022-08-21T12:48:59.074Z,26.85
2022-08-21T12:53:20.515Z,27.02
2022-08-21T12:57:28.734Z,26.84
2022-08-21T13:01:52.662Z,27.00
2022-08-21T13:05:55.655Z,27.27
2022-08-21T13:10:05.863Z,27.55
2022-08-21T13:14:16.654Z,28.33
2022-08-21T13:18:25.285Z,28.14
2022-08-21T13:22:33.505Z,28.16
2022-08-21T13:26:37.518Z,27.96
2022-08-21T13:30:46.471Z,27.65
2022-08-21T13:34:48.890Z,27.43
2022-08-21T13:38:57.231Z,27.66
2022-08-21T13:43:02.002Z,27.26
2022-08-21T13:47:07.644Z,27.54
2022-08-21T13:51:11.314Z,27.69
2022-08-21T13:55:17.477Z,28.07
2022-08-21T13:59:28.891Z,27.91
2022-08-21T14:03:42.791Z,27.40
2022-08-21T14:07:45.662Z,27.35
2022-08-21T14:11:48.358Z,27.24
2022-08-21T14:15:59.018Z,27.55
2022-08-21T14:20:01.980Z,27.62
2022-08-21T14:24:26.254Z,27.77
2022-08-21T14:28:39.375Z,28.02
2022-08-21T14:32:44.847Z,27.91
2022-08-21T14:36:49.591Z,27.90
2022-08-21T14:40:54.988Z,28.11
2022-08-21T14:45:02.804Z,28.03
2022-08-21T14:49:05.062Z,28.09
2022-08-21T14:53:10.973Z,27.71
2022-08-21T14:57:14.074Z,27.58
2022-08-21T15:01:19.653Z,27.65
2022-08-21T15:05:31.639Z,27.82
2022-08-21T15:09:36.298Z,27.52
2022-08-21T15:13:38.651Z,27.77
2022-08-21T15:17:43.896Z,27.85
2022-08-21T15:21:48.632Z,27.62
2022-08-21T15:25:51.756Z,27.49
2022-08-21T15:29:55.565Z,27.99
2022-08-21T15:33:58.025Z,27.93
2022-08-21T15:38:00.507Z,28.28
2022-08-21T15:42:10.535Z,28.20
2022-08-21T15:46:16.822Z,28.72
2022-08-21T15:50:20.591Z,28.78
2022-08-21T15:54:22.996Z,28.32
2022-08-21T15:58:25.547Z,29.00
2022-08-21T16:02:31.388Z,29.00
2022-08-21T16:06:38.475Z,28.18
2022-08-21T16:10:56.731Z,27.51
2022-08-21T16:15:00.861Z,26.86
2022-08-21T16:19:04.154Z,26.36
2022-08-21T16:23:06.772Z,26.06
2022-08-21T16:27:09.568Z,25.66
2022-08-21T16:31:15.476Z,25.23
2022-08-21T16:35:21.908Z,25.14
2022-08-21T16:39:24.278Z,24.94
2022-08-21T16:43:29.390Z,25.04
2022-08-21T16:47:32.175Z,24.85
2022-08-21T16:51:34.608Z,24.83
2022-08-21T16:55:37.423Z,24.62
2022-08-21T16:59:41.351Z,24.48
2022-08-21T17:03:47.597Z,24.42
2022-08-21T17:07:49.981Z,24.29
2022-08-21T17:11:52.713Z,24.23
2022-08-21T17:15:55.074Z,23.99
2022-08-21T17:19:57.591Z,23.86
2022-08-21T17:24:00.249Z,23.75
2022-08-21T17:28:02.994Z,23.67
2022-08-21T17:32:10.530Z,23.57
2022-08-21T17:36:12.945Z,23.31
2022-08-21T17:40:15.651Z,23.12
2022-08-21T17:44:20.534Z,23.03
2022-08-21T17:48:25.377Z,22.93
2022-08-21T17:52:28.241Z,22.78
2022-08-21T17:56:34.712Z,22.65
2022-08-21T18:00:37.806Z,22.47
2022-08-21T18:04:40.262Z,22.31
2022-08-21T18:08:42.969Z,22.11
2022-08-21T18:12:45.871Z,22.05
2022-08-21T18:16:48.374Z,21.96
2022-08-21T18:20:51.429Z,21.81
2022-08-21T18:24:54.171Z,21.73
2022-08-21T18:29:00.702Z,21.53
2022-08-21T18:33:03.547Z,21.42
2022-08-21T18:37:06.079Z,21.33
2022-08-21T18:41:10.503Z,21.16
2022-08-21T18:45:18.164Z,21.13
2022-08-21T18:49:20.953Z,20.93
2022-08-21T18:53:27.815Z,20.94
2022-08-21T18:57:32.555Z,20.75
2022-08-21T19:01:35.816Z,20.67
2022-08-21T19:05:40.115Z,20.54
2022-08-21T19:09:52.992Z,20.47
2022-08-21T19:14:15.662Z,20.25
2022-08-21T19:22:48.645Z,20.17
2022-08-21T19:26:56.095Z,20.06
2022-08-21T19:31:05.644Z,20.04
2022-08-21T19:35:08.355Z,19.96
2022-08-21T19:39:12.131Z,19.90
2022-08-21T19:43:14.763Z,19.84
2022-08-21T19:47:20.575Z,19.73
2022-08-21T19:51:23.821Z,19.66
2022-08-21T19:55:26.374Z,19.66
2022-08-21T19:59:28.674Z,19.52
2022-08-21T20:03:31.116Z,19.51
2022-08-21T20:07:33.571Z,19.45
2022-08-21T20:11:40.759Z,19.43
2022-08-21T20:15:44.018Z,19.39
2022-08-21T20:19:51.286Z,19.28
2022-08-21T20:23:56.812Z,19.22
2022-08-21T20:27:59.326Z,19.20
2022-08-21T20:32:05.008Z,19.21
2022-08-21T20:36:07.434Z,19.13
2022-08-21T20:40:14.539Z,19.16
2022-08-21T20:44:17.146Z,19.12
2022-08-21T20:48:49.286Z,19.08
2022-08-21T20:52:57.623Z,19.05
2022-08-21T20:57:05.970Z,19.05
2022-08-21T21:01:16.343Z,18.96
2022-08-21T21:05:54.434Z,18.96
2022-08-21T21:09:59.066Z,18.90
2022-08-21T21:14:07.926Z,18.81
2022-08-21T21:18:18.692Z,18.61
2022-08-21T21:22:27.414Z,18.80
2022-08-21T21:26:48.814Z,18.77
2022-08-21T21:30:52.021Z,18.69
2022-08-21T21:35:05.171Z,18.60
2022-08-21T21:39:36.366Z,18.55
2022-08-21T21:44:04.033Z,18.59
2022-08-21T21:48:28.128Z,18.46
2022-08-21T21:52:53.248Z,18.39
2022-08-21T21:57:02.848Z,18.37
2022-08-21T22:01:32.243Z,18.22
2022-08-21T22:06:20.497Z,18.11
2022-08-21T22:10:50.403Z,18.07
2022-08-21T22:14:55.881Z,18.05
2022-08-21T22:19:34.004Z,18.01
2022-08-21T22:23:42.532Z,17.99
2022-08-21T22:27:47.203Z,17.97
2022-08-21T22:32:25.280Z,17.92
2022-08-21T22:36:34.366Z,17.85
2022-08-21T22:40:37.169Z,17.82
2022-08-21T22:45:05.034Z,17.73
2022-08-21T22:49:34.158Z,17.77
2022-08-21T22:53:40.498Z,17.71
2022-08-21T22:57:45.352Z,17.72
2022-08-21T23:01:59.016Z,17.66
2022-08-21T23:06:22.052Z,17.64
2022-08-21T23:10:29.782Z,17.64
2022-08-21T23:14:35.125Z,17.63
2022-08-21T23:19:00.437Z,17.55
2022-08-21T23:23:14.282Z,17.56
2022-08-21T23:27:33.124Z,17.58
2022-08-21T23:31:52.978Z,17.63
2022-08-21T23:36:28.799Z,17.67
2022-08-21T23:40:50.649Z,17.67
2022-08-21T23:45:15.226Z,17.72
2022-08-21T23:49:27.843Z,17.75
2022-08-21T23:53:50.367Z,17.73
2022-08-21T23:58:20.311Z,17.69
